Terminal Aerodrome Forecast
Issued by NWS

Home | Current Version | Previous Version | Text Only | Print | Product List | Glossary On
Versions: 1 2 3 4 5 6 7 8 9 10 11 12 13 14 15 16
254
FTUS46 KSEW 261720
TAFCLM
TAF
KCLM 261720Z 2618/2718 09008KT P6SM -RA SCT012 OVC025
      TEMPO 2618/2621 4SM -RASN BR BKN012 OVC025
     FM262100 09008KT P6SM VCSH BKN030
     FM270000 09006KT P6SM VCSH BKN040=

USA.gov is the U.S. government's official web portal to all federal, state and local government web resources and services.